Time,TemperatureF,DewpointF,PressureIn,WindDirection,WindDirectionDegrees,WindSpeedMPH,WindSpeedGustMPH,Humidity,HourlyPrecipIn,Conditions,Clouds,dailyrainin,SoftwareType,DateUTC
2013-03-11 00:03:00,67.0,-99.9,30.04,NE,51,2.0,2.0,-999,-99.99,,,-99.99,,2013-03-11 10:03:00,
2013-03-11 00:12:00,67.0,-99.9,30.04,NNW,334,1.0,2.0,-999,-99.99,,,-99.99,,2013-03-11 10:12:00,
2013-03-11 00:22:00,66.0,-99.9,30.04,NNW,335,-999.0,0.0,-999,-99.99,,,-99.99,,2013-03-11 10:22:00,
2013-03-11 00:33:00,66.0,-99.9,30.04,North,-999,-999.0,-999.0,-999,-99.99,,,-99.99,,2013-03-11 10:33:00,
2013-03-11 00:42:00,66.0,-99.9,30.03,NNE,26,0.0,2.0,-999,-99.99,,,-99.99,,2013-03-11 10:42:00,
2013-03-11 00:53:00,66.0,-99.9,30.03,NNW,343,1.0,1.0,-999,-99.99,,,-99.99,,2013-03-11 10:53:00,
2013-03-11 01:03:00,66.0,-99.9,30.03,North,354,-999.0,0.0,-999,-99.99,,,-99.99,,2013-03-11 11:03:00,
2013-03-11 01:12:00,66.0,-99.9,30.03,NNE,33,0.0,2.0,-999,-99.99,,,-99.99,,2013-03-11 11:12:00,
2013-03-11 01:23:00,65.0,-99.9,30.02,East,100,-999.0,2.0,-999,-99.99,,,-99.99,,2013-03-11 11:23:00,
2013-03-11 01:33:00,65.0,-99.9,30.02,East,95,-999.0,1.0,-999,-99.99,,,-99.99,,2013-03-11 11:33:00,
2013-03-11 01:43:00,66.0,-99.9,30.02,East,84,-999.0,1.0,-999,-99.99,,,-99.99,,2013-03-11 11:43:00,
2013-03-11 01:53:00,65.0,-99.9,30.02,ENE,75,-999.0,1.0,-999,-99.99,,,-99.99,,2013-03-11 11:53:00,
2013-03-11 02:02:00,65.0,-99.9,30.01,NNW,327,-999.0,1.0,-999,-99.99,,,-99.99,,2013-03-11 12:02:00,
2013-03-11 02:12:00,65.0,-99.9,30.01,NNW,341,1.0,2.0,-999,-99.99,,,-99.99,,2013-03-11 12:12:00,
2013-03-11 02:23:00,65.0,-99.9,30.01,NNW,327,4.0,5.0,-999,-99.99,,,-99.99,,2013-03-11 12:23:00,
2013-03-11 02:33:00,65.0,-99.9,30.01,NNE,15,1.0,3.0,-999,-99.99,,,-99.99,,2013-03-11 12:33:00,
2013-03-11 02:43:00,65.0,-99.9,30.00,NNW,347,1.0,2.0,-999,-99.99,,,-99.99,,2013-03-11 12:43:00,
2013-03-11 02:53:00,65.0,-99.9,30.00,NE,50,0.0,1.0,-999,-99.99,,,-99.99,,2013-03-11 12:53:00,
2013-03-11 03:03:00,66.0,-99.9,29.99,North,4,-999.0,2.0,-999,-99.99,,,-99.99,,2013-03-11 13:03:00,
2013-03-11 03:13:00,65.0,-99.9,29.98,ESE,106,1.0,2.0,-999,-99.99,,,-99.99,,2013-03-11 13:13:00,
2013-03-11 03:23:00,65.0,-99.9,29.98,ESE,116,1.0,2.0,-999,-99.99,,,-99.99,,2013-03-11 13:23:00,
2013-03-11 03:33:00,65.0,-99.9,29.98,ESE,113,1.0,2.0,-999,-99.99,,,-99.99,,2013-03-11 13:33:00,
2013-03-11 03:43:00,65.0,-99.9,29.98,SE,124,-999.0,2.0,-999,-99.99,,,-99.99,,2013-03-11 13:43:00,
2013-03-11 03:53:00,65.0,-99.9,29.98,NNE,20,1.0,4.0,-999,-99.99,,,-99.99,,2013-03-11 13:53:00,
2013-03-11 04:02:00,65.0,-99.9,29.98,ESE,114,2.0,2.0,-999,-99.99,,,-99.99,,2013-03-11 14:02:00,
2013-03-11 04:12:00,65.0,-99.9,29.98,SE,144,1.0,2.0,-999,-99.99,,,-99.99,,2013-03-11 14:12:00,
2013-03-11 04:22:00,65.0,-99.9,29.98,ESE,102,2.0,3.0,-999,-99.99,,,-99.99,,2013-03-11 14:22:00,
2013-03-11 04:33:00,64.0,-99.9,29.98,East,95,2.0,2.0,-999,-99.99,,,-99.99,,2013-03-11 14:33:00,
2013-03-11 04:43:00,65.0,-99.9,29.98,East,82,2.0,3.0,-999,-99.99,,,-99.99,,2013-03-11 14:43:00,
2013-03-11 04:53:00,64.0,-99.9,29.98,ESE,112,2.0,3.0,-999,-99.99,,,-99.99,,2013-03-11 14:53:00,
2013-03-11 05:03:00,65.0,-99.9,29.98,ENE,63,3.0,4.0,-999,-99.99,,,-99.99,,2013-03-11 15:03:00,
2013-03-11 05:13:00,65.0,-99.9,29.98,NE,38,1.0,1.0,-999,-99.99,,,-99.99,,2013-03-11 15:13:00,
2013-03-11 05:23:00,65.0,-99.9,29.98,NNE,29,-999.0,1.0,-999,-99.99,,,-99.99,,2013-03-11 15:23:00,
2013-03-11 05:33:00,65.0,-99.9,29.98,ENE,64,1.0,2.0,-999,-99.99,,,-99.99,,2013-03-11 15:33:00,
2013-03-11 05:43:00,65.0,-99.9,29.98,ENE,64,-999.0,1.0,-999,-99.99,,,-99.99,,2013-03-11 15:43:00,
2013-03-11 05:53:00,65.0,-99.9,29.99,NNE,16,-999.0,6.0,-999,-99.99,,,-99.99,,2013-03-11 15:53:00,
2013-03-11 06:03:00,65.0,-99.9,29.99,ENE,63,1.0,2.0,-999,-99.99,,,-99.99,,2013-03-11 16:03:00,
2013-03-11 06:13:00,65.0,-99.9,30.00,NE,50,-999.0,2.0,-999,-99.99,,,-99.99,,2013-03-11 16:13:00,
2013-03-11 06:22:00,65.0,-99.9,30.00,ESE,114,2.0,2.0,-999,-99.99,,,-99.99,,2013-03-11 16:22:00,
2013-03-11 06:32:00,65.0,-99.9,30.00,North,2,-999.0,1.0,-999,-99.99,,,-99.99,,2013-03-11 16:32:00,
2013-03-11 06:43:00,65.0,-99.9,30.00,SE,127,2.0,3.0,-999,-99.99,,,-99.99,,2013-03-11 16:43:00,
2013-03-11 06:53:00,64.0,-99.9,30.01,NE,44,-999.0,2.0,-999,-99.99,,,-99.99,,2013-03-11 16:53:00,
2013-03-11 07:03:00,65.0,-99.9,30.01,NNW,345,-999.0,3.0,-999,-99.99,,,-99.99,,2013-03-11 17:03:00,
2013-03-11 07:17:00,66.0,-99.9,30.02,NNW,335,4.0,4.0,-999,-99.99,,,-99.99,,2013-03-11 17:17:00,
2013-03-11 07:28:00,66.0,-99.9,30.02,NNW,343,2.0,4.0,-999,-99.99,,,-99.99,,2013-03-11 17:28:00,
2013-03-11 07:38:00,66.0,-99.9,30.02,North,4,2.0,4.0,-999,-99.99,,,-99.99,,2013-03-11 17:38:00,
2013-03-11 07:53:00,66.0,-99.9,30.03,ENE,77,2.0,4.0,-999,-99.99,,,-99.99,,2013-03-11 17:53:00,
2013-03-11 08:03:00,67.0,-99.9,30.03,East,88,1.0,2.0,-999,-99.99,,,-99.99,,2013-03-11 18:03:00,
2013-03-11 08:12:00,68.0,-99.9,30.04,ENE,77,0.0,1.0,-999,-99.99,,,-99.99,,2013-03-11 18:12:00,
2013-03-11 08:23:00,69.0,-99.9,30.04,ESE,105,2.0,3.0,-999,-99.99,,,-99.99,,2013-03-11 18:23:00,
2013-03-11 08:33:00,70.0,-99.9,30.04,ESE,102,2.0,3.0,-999,-99.99,,,-99.99,,2013-03-11 18:33:00,
2013-03-11 08:43:00,71.0,-99.9,30.05,NE,46,2.0,3.0,-999,-99.99,,,-99.99,,2013-03-11 18:43:00,
2013-03-11 08:53:00,71.0,-99.9,30.06,NE,51,2.0,3.0,-999,-99.99,,,-99.99,,2013-03-11 18:53:00,
2013-03-11 09:02:00,71.0,-99.9,30.06,NE,56,3.0,4.0,-999,-99.99,,,-99.99,,2013-03-11 19:02:00,
2013-03-11 09:13:00,72.0,-99.9,30.06,East,98,2.0,4.0,-999,-99.99,,,-99.99,,2013-03-11 19:13:00,
2013-03-11 09:23:00,72.0,-99.9,30.07,SE,124,2.0,3.0,-999,-99.99,,,-99.99,,2013-03-11 19:23:00,
2013-03-11 09:33:00,71.0,-99.9,30.07,West,268,1.0,1.0,-999,-99.99,,,-99.99,,2013-03-11 19:33:00,
2013-03-11 09:43:00,71.0,-99.9,30.07,WNW,285,1.0,2.0,-999,-99.99,,,-99.99,,2013-03-11 19:43:00,
2013-03-11 09:53:00,71.0,-99.9,30.07,WNW,288,2.0,2.0,-999,-99.99,,,-99.99,,2013-03-11 19:53:00,
2013-03-11 10:03:00,72.0,-99.9,30.08,West,263,2.0,2.0,-999,-99.99,,,-99.99,,2013-03-11 20:03:00,
2013-03-11 10:12:00,73.0,-99.9,30.07,NW,312,3.0,6.0,-999,-99.99,,,-99.99,,2013-03-11 20:12:00,
2013-03-11 10:23:00,73.0,-99.9,30.08,West,279,4.0,4.0,-999,-99.99,,,-99.99,,2013-03-11 20:23:00,
2013-03-11 10:33:00,72.0,-99.9,30.08,SW,223,5.0,7.0,-999,-99.99,,,-99.99,,2013-03-11 20:33:00,
2013-03-11 10:44:00,71.0,-99.9,30.08,SW,225,6.0,7.0,-999,-99.99,,,-99.99,,2013-03-11 20:44:00,
2013-03-11 10:53:00,72.0,-99.9,30.08,SW,228,6.0,6.0,-999,-99.99,,,-99.99,,2013-03-11 20:53:00,
2013-03-11 11:03:00,72.0,-99.9,30.08,SW,229,5.0,6.0,-999,-99.99,,,-99.99,,2013-03-11 21:03:00,
2013-03-11 11:13:00,72.0,-99.9,30.08,SW,233,6.0,6.0,-999,-99.99,,,-99.99,,2013-03-11 21:13:00,
2013-03-11 11:23:00,72.0,-99.9,30.08,SW,228,6.0,7.0,-999,-99.99,,,-99.99,,2013-03-11 21:23:00,
2013-03-11 11:33:00,73.0,-99.9,30.07,SW,229,6.0,7.0,-999,-99.99,,,-99.99,,2013-03-11 21:33:00,
2013-03-11 11:44:00,73.0,-99.9,30.07,SSW,208,7.0,9.0,-999,-99.99,,,-99.99,,2013-03-11 21:44:00,
2013-03-11 11:54:00,73.0,-99.9,30.07,SSW,213,6.0,9.0,-999,-99.99,,,-99.99,,2013-03-11 21:54:00,
2013-03-11 12:03:00,73.0,-99.9,30.06,SW,216,7.0,9.0,-999,-99.99,,,-99.99,,2013-03-11 22:03:00,
2013-03-11 12:13:00,74.0,-99.9,30.06,SSW,208,6.0,9.0,-999,-99.99,,,-99.99,,2013-03-11 22:13:00,
2013-03-11 12:23:00,74.0,-99.9,30.06,SSW,203,6.0,9.0,-999,-99.99,,,-99.99,,2013-03-11 22:23:00,
2013-03-11 12:33:00,74.0,-99.9,30.06,SSW,213,7.0,11.0,-999,-99.99,,,-99.99,,2013-03-11 22:33:00,
2013-03-11 12:43:00,74.0,-99.9,30.05,SSW,212,7.0,10.0,-999,-99.99,,,-99.99,,2013-03-11 22:43:00,
2013-03-11 12:53:00,73.0,-99.9,30.05,SW,215,8.0,10.0,-999,-99.99,,,-99.99,,2013-03-11 22:53:00,
2013-03-11 13:03:00,73.0,-99.9,30.04,SW,217,9.0,10.0,-999,-99.99,,,-99.99,,2013-03-11 23:03:00,
2013-03-11 13:12:00,73.0,-99.9,30.04,SSW,213,7.0,11.0,-999,-99.99,,,-99.99,,2013-03-11 23:12:00,
2013-03-11 13:22:00,74.0,-99.9,30.03,SW,214,7.0,11.0,-999,-99.99,,,-99.99,,2013-03-11 23:22:00,
2013-03-11 13:33:00,73.0,-99.9,30.03,SW,216,7.0,10.0,-999,-99.99,,,-99.99,,2013-03-11 23:33:00,
2013-03-11 13:43:00,74.0,-99.9,30.03,SW,217,8.0,10.0,-999,-99.99,,,-99.99,,2013-03-11 23:43:00,
2013-03-11 13:54:00,74.0,-99.9,30.02,SSW,209,8.0,10.0,-999,-99.99,,,-99.99,,2013-03-11 23:54:00,
2013-03-11 14:02:00,74.0,-99.9,30.02,SSW,209,8.0,10.0,-999,-99.99,,,-99.99,,2013-03-12 00:02:00,
2013-03-11 14:13:00,73.0,-99.9,30.01,SW,222,8.0,10.0,-999,-99.99,,,-99.99,,2013-03-12 00:13:00,
2013-03-11 14:23:00,73.0,-99.9,30.01,SW,224,8.0,9.0,-999,-99.99,,,-99.99,,2013-03-12 00:23:00,
2013-03-11 14:33:00,74.0,-99.9,30.00,SW,228,8.0,13.0,-999,-99.99,,,-99.99,,2013-03-12 00:33:00,
2013-03-11 14:43:00,76.0,-99.9,29.99,South,173,6.0,15.0,-999,-99.99,,,-99.99,,2013-03-12 00:43:00,
2013-03-11 14:54:00,75.0,-99.9,29.99,SW,225,6.0,11.0,-999,-99.99,,,-99.99,,2013-03-12 00:54:00,
2013-03-11 15:02:00,75.0,-99.9,29.99,SW,226,8.0,11.0,-999,-99.99,,,-99.99,,2013-03-12 01:02:00,
2013-03-11 15:12:00,77.0,-99.9,29.99,SSE,164,3.0,9.0,-999,-99.99,,,-99.99,,2013-03-12 01:12:00,
2013-03-11 15:22:00,77.0,-99.9,29.99,SSE,156,4.0,9.0,-999,-99.99,,,-99.99,,2013-03-12 01:22:00,
2013-03-11 15:33:00,77.0,-99.9,29.99,South,179,4.0,8.0,-999,-99.99,,,-99.99,,2013-03-12 01:33:00,
2013-03-11 15:42:00,75.0,-99.9,29.99,SSW,207,9.0,13.0,-999,-99.99,,,-99.99,,2013-03-12 01:42:00,
2013-03-11 15:53:00,76.0,-99.9,29.99,South,182,6.0,10.0,-999,-99.99,,,-99.99,,2013-03-12 01:53:00,
2013-03-11 16:02:00,75.0,-99.9,29.98,SSW,205,7.0,13.0,-999,-99.99,,,-99.99,,2013-03-12 02:02:00,
2013-03-11 16:13:00,75.0,-99.9,29.98,SW,216,9.0,12.0,-999,-99.99,,,-99.99,,2013-03-12 02:13:00,
2013-03-11 16:22:00,75.0,-99.9,29.98,SW,219,9.0,13.0,-999,-99.99,,,-99.99,,2013-03-12 02:22:00,
2013-03-11 16:32:00,76.0,-99.9,29.98,SW,223,4.0,11.0,-999,-99.99,,,-99.99,,2013-03-12 02:32:00,
2013-03-11 16:43:00,75.0,-99.9,29.98,SW,219,8.0,11.0,-999,-99.99,,,-99.99,,2013-03-12 02:43:00,
2013-03-11 16:52:00,76.0,-99.9,29.98,SW,229,7.0,9.0,-999,-99.99,,,-99.99,,2013-03-12 02:52:00,
2013-03-11 17:02:00,75.0,-99.9,29.98,SSW,205,5.0,8.0,-999,-99.99,,,-99.99,,2013-03-12 03:02:00,
2013-03-11 17:12:00,75.0,-99.9,29.99,WSW,246,5.0,8.0,-999,-99.99,,,-99.99,,2013-03-12 03:12:00,
2013-03-11 17:22:00,76.0,-99.9,29.99,SSW,203,7.0,9.0,-999,-99.99,,,-99.99,,2013-03-12 03:22:00,
2013-03-11 17:32:00,75.0,-99.9,29.99,SW,220,5.0,9.0,-999,-99.99,,,-99.99,,2013-03-12 03:32:00,
2013-03-11 17:43:00,76.0,-99.9,29.99,SSW,204,3.0,8.0,-999,-99.99,,,-99.99,,2013-03-12 03:43:00,
2013-03-11 17:53:00,76.0,-99.9,29.99,SW,216,5.0,7.0,-999,-99.99,,,-99.99,,2013-03-12 03:53:00,
2013-03-11 18:03:00,76.0,-99.9,29.99,SSW,192,3.0,5.0,-999,-99.99,,,-99.99,,2013-03-12 04:03:00,
2013-03-11 18:13:00,76.0,-99.9,29.99,SW,215,4.0,7.0,-999,-99.99,,,-99.99,,2013-03-12 04:13:00,
2013-03-11 18:23:00,75.0,-99.9,30.00,WNW,297,4.0,7.0,-999,-99.99,,,-99.99,,2013-03-12 04:23:00,
2013-03-11 18:33:00,74.0,-99.9,30.00,North,5,5.0,9.0,-999,-99.99,,,-99.99,,2013-03-12 04:33:00,
2013-03-11 18:43:00,74.0,-99.9,30.00,North,355,6.0,9.0,-999,-99.99,,,-99.99,,2013-03-12 04:43:00,
2013-03-11 18:53:00,74.0,-99.9,30.00,North,10,3.0,9.0,-999,-99.99,,,-99.99,,2013-03-12 04:53:00,
2013-03-11 19:03:00,73.0,-99.9,30.01,North,2,4.0,7.0,-999,-99.99,,,-99.99,,2013-03-12 05:03:00,
2013-03-11 19:12:00,73.0,-99.9,30.01,North,1,3.0,6.0,-999,-99.99,,,-99.99,,2013-03-12 05:12:00,
2013-03-11 19:22:00,73.0,-99.9,30.01,NNE,27,3.0,5.0,-999,-99.99,,,-99.99,,2013-03-12 05:22:00,
2013-03-11 19:33:00,73.0,-99.9,30.02,NE,49,4.0,8.0,-999,-99.99,,,-99.99,,2013-03-12 05:33:00,
2013-03-11 19:42:00,73.0,-99.9,30.02,NNE,23,2.0,4.0,-999,-99.99,,,-99.99,,2013-03-12 05:42:00,
2013-03-11 19:52:00,73.0,-99.9,30.03,North,7,3.0,5.0,-999,-99.99,,,-99.99,,2013-03-12 05:52:00,
2013-03-11 20:02:00,73.0,-99.9,30.03,NE,56,3.0,6.0,-999,-99.99,,,-99.99,,2013-03-12 06:02:00,
2013-03-11 20:12:00,73.0,-99.9,30.04,North,359,4.0,5.0,-999,-99.99,,,-99.99,,2013-03-12 06:12:00,
2013-03-11 20:22:00,73.0,-99.9,30.04,NNE,18,2.0,5.0,-999,-99.99,,,-99.99,,2013-03-12 06:22:00,
2013-03-11 20:32:00,73.0,-99.9,30.05,NE,47,3.0,4.0,-999,-99.99,,,-99.99,,2013-03-12 06:32:00,
2013-03-11 20:42:00,73.0,-99.9,30.05,NE,50,3.0,5.0,-999,-99.99,,,-99.99,,2013-03-12 06:42:00,
2013-03-11 20:52:00,73.0,-99.9,30.05,ENE,62,4.0,6.0,-999,-99.99,,,-99.99,,2013-03-12 06:52:00,
2013-03-11 21:02:00,72.0,-99.9,30.06,NE,54,2.0,3.0,-999,-99.99,,,-99.99,,2013-03-12 07:02:00,
2013-03-11 21:12:00,72.0,-99.9,30.06,NE,51,3.0,5.0,-999,-99.99,,,-99.99,,2013-03-12 07:12:00,
2013-03-11 21:22:00,72.0,-99.9,30.07,NE,54,2.0,5.0,-999,-99.99,,,-99.99,,2013-03-12 07:22:00,
2013-03-11 21:32:00,72.0,-99.9,30.07,ENE,70,4.0,6.0,-999,-99.99,,,-99.99,,2013-03-12 07:32:00,
2013-03-11 21:42:00,72.0,-99.9,30.07,NE,56,3.0,6.0,-999,-99.99,,,-99.99,,2013-03-12 07:42:00,
2013-03-11 21:53:00,72.0,-99.9,30.08,NE,52,4.0,7.0,-999,-99.99,,,-99.99,,2013-03-12 07:53:00,
2013-03-11 22:02:00,72.0,-99.9,30.08,ENE,67,5.0,8.0,-999,-99.99,,,-99.99,,2013-03-12 08:02:00,
2013-03-11 22:13:00,71.0,-99.9,30.08,NE,55,7.0,9.0,-999,-99.99,,,-99.99,,2013-03-12 08:13:00,
2013-03-11 22:22:00,71.0,-99.9,30.08,ENE,59,5.0,9.0,-999,-99.99,,,-99.99,,2013-03-12 08:22:00,
2013-03-11 22:33:00,71.0,-99.9,30.08,ENE,64,5.0,8.0,-999,-99.99,,,-99.99,,2013-03-12 08:33:00,
2013-03-11 22:42:00,72.0,-99.9,30.08,NE,56,4.0,8.0,-999,-99.99,,,-99.99,,2013-03-12 08:42:00,
2013-03-11 22:52:00,72.0,-99.9,30.08,ENE,59,3.0,8.0,-999,-99.99,,,-99.99,,2013-03-12 08:52:00,
2013-03-11 23:03:00,72.0,-99.9,30.07,NE,53,5.0,8.0,-999,-99.99,,,-99.99,,2013-03-12 09:03:00,
2013-03-11 23:12:00,72.0,-99.9,30.07,ENE,64,4.0,6.0,-999,-99.99,,,-99.99,,2013-03-12 09:12:00,
2013-03-11 23:22:00,72.0,-99.9,30.07,NE,54,2.0,6.0,-999,-99.99,,,-99.99,,2013-03-12 09:22:00,
2013-03-11 23:33:00,71.0,-99.9,30.06,NNE,18,2.0,5.0,-999,-99.99,,,-99.99,,2013-03-12 09:33:00,
2013-03-11 23:43:00,71.0,-99.9,30.06,NE,52,4.0,6.0,-999,-99.99,,,-99.99,,2013-03-12 09:43:00,
2013-03-11 23:53:00,72.0,-99.9,30.07,ENE,57,4.0,6.0,-999,-99.99,,,-99.99,,2013-03-12 09:53:00,